Woodstock, Connecticut
Current Conditions -  °F | °C
As of 9:52 AM on Saturday 25 Oct 2014 (Local Time) from KIJD Reporting Station
Clear Clear  
Wind Chill: 53°   Ceiling: Unl
Heat Index: 53°   Visibility: 10mi
Dew Point: 42°   Wind: 5mph
Humidity: 66%   Direction: 280°W
Pressure: 29.79"   Gusts: NA
Location:  41.95°N, 71.97°W
Report Text: KIJD 251352Z AUTO 28004KT 10SM CLR 12/06 A2979 RMK AO2 SLP088 T01170056
Loading
Personal Weather Stations






























Interactive Weather Map
Tropical Storm Tracking
New forecast layout! Learn more

10-Day Weather Forecast

Advertisements
Track Severe Weather on mobile